Meriden, Wyoming
Current Conditions -  °F | °C
As of 4:35 PM on Monday 20 Oct 2014 (Local Time) from K82V Reporting Station
Clear Clear  
Wind Chill: 73°   Ceiling: Unl
Heat Index: 73°   Visibility: 10mi
Dew Point: 32°   Wind: 9mph
Humidity: 22%   Direction: 180°S
Pressure: 30.07"   Gusts: NA
Location:  41.54°N, 104.32°W
Report Text: K82V 202235Z AUTO 18008KT 10SM CLR 23/00 A3007 RMK AO2
Loading
Personal Weather Stations






























Interactive Weather Map
Tropical Storm Tracking
New forecast layout! Learn more

10-Day Weather Forecast

Advertisements
Track Severe Weather on mobile